Time;durP1;ratioP1;P1;durP2;ratioP2;P2;SDS_P1;SDS_P2;PMS_P1;PMS_P2;Temp;Humidity;BMP_temperature;BMP_pressure;BME280_temperature;BME280_humidity;BME280_pressure;Samples;Min_cycle;Max_cycle;Signal;HPM_P1;HPM_P2
2021/11/08 00:00:45;;;;;;;8.10;0.75;;;;;;;7.80;51.35;101515.56;5000350;28;20806;-69
2021/11/08 00:03:15;;;;;;;18.63;1.05;;;;;;;8.06;50.51;101520.31;4999045;28;20105;-68
2021/11/08 00:05:43;;;;;;;15.48;0.77;;;;;;;8.24;50.45;101519.09;4999214;28;20030;-67
2021/11/08 00:08:09;;;;;;;8.60;0.47;;;;;;;8.18;50.35;101509.63;4998763;28;20146;-68
2021/11/08 00:10:36;;;;;;;8.65;1.63;;;;;;;8.20;50.21;101520.03;5014834;28;20041;-68
2021/11/08 00:13:05;;;;;;;9.48;0.90;;;;;;;7.92;50.62;101507.56;4999149;28;20041;-68
2021/11/08 00:15:40;;;;;;;13.18;0.52;;;;;;;7.76;50.87;101521.72;5002002;28;20050;-67
2021/11/08 00:20:51;;;;;;;8.85;1.77;;;;;;;7.73;50.92;101520.91;5001233;28;20900;-68
2021/11/08 00:23:17;;;;;;;14.07;0.90;;;;;;;7.50;51.85;101525.59;4998869;28;20053;-68
2021/11/08 00:25:44;;;;;;;9.82;0.70;;;;;;;7.50;51.46;101523.00;5016301;28;20030;-68
2021/11/08 00:28:12;;;;;;;11.52;0.82;;;;;;;7.49;51.68;101531.72;4996341;28;20042;-68
2021/11/08 00:30:39;;;;;;;13.40;3.13;;;;;;;7.40;51.68;101532.72;5015152;28;20038;-68
2021/11/08 00:33:09;;;;;;;11.63;2.22;;;;;;;7.21;52.23;101546.88;4997157;28;20045;-68
2021/11/08 00:35:37;;;;;;;10.57;0.90;;;;;;;7.14;52.92;101546.09;5015960;28;20077;-68
2021/11/08 00:38:03;;;;;;;19.45;1.35;;;;;;;7.28;52.46;101546.75;4982639;28;20652;-68
2021/11/08 00:40:29;;;;;;;7.88;1.05;;;;;;;7.21;52.65;101549.47;5000588;28;20740;-68
2021/11/08 00:42:54;;;;;;;11.48;1.50;;;;;;;7.26;52.69;101543.31;5000344;28;20041;-68
2021/11/08 00:45:22;;;;;;;7.78;0.77;;;;;;;7.47;51.69;101547.31;5014535;28;20049;-68
2021/11/08 00:47:47;;;;;;;10.07;0.90;;;;;;;7.78;51.11;101548.56;4997364;28;20061;-68
2021/11/08 00:50:13;;;;;;;11.85;0.80;;;;;;;7.62;51.41;101554.03;5000668;28;20034;-68
2021/11/08 00:52:39;;;;;;;8.23;1.38;;;;;;;7.28;52.17;101553.69;4997497;28;20045;-69
2021/11/08 00:55:05;;;;;;;13.40;1.27;;;;;;;7.42;52.10;101550.88;4998791;28;20030;-69
2021/11/08 00:57:35;;;;;;;13.32;0.90;;;;;;;7.38;51.95;101549.19;5013616;28;20026;-68
2021/11/08 01:00:01;;;;;;;14.35;1.17;;;;;;;7.76;51.08;101550.34;5000660;28;20085;-68
2021/11/08 01:02:29;;;;;;;15.73;1.27;;;;;;;7.62;51.50;101551.44;4999085;28;20038;-68
2021/11/08 01:04:58;;;;;;;11.90;1.33;;;;;;;7.36;51.75;101553.59;4999544;28;20041;-68
2021/11/08 01:07:23;;;;;;;10.82;0.73;;;;;;;7.63;51.55;101566.19;5013796;28;20080;-69
2021/11/08 01:09:49;;;;;;;10.85;0.95;;;;;;;7.78;51.14;101579.78;5015378;28;20037;-68
2021/11/08 01:12:14;;;;;;;9.23;1.55;;;;;;;7.78;51.44;101582.41;4999765;28;20073;-68
2021/11/08 01:14:41;;;;;;;14.32;1.02;;;;;;;7.37;52.89;101583.91;5014780;28;20050;-68
2021/11/08 01:17:08;;;;;;;8.02;0.80;;;;;;;7.57;52.20;101576.66;5000514;28;20045;-68
2021/11/08 01:19:35;;;;;;;7.75;0.57;;;;;;;7.66;52.10;101581.72;5015098;28;20038;-68
2021/11/08 01:22:06;;;;;;;11.48;1.33;;;;;;;7.64;52.20;101587.84;5001182;28;20061;-68
2021/11/08 01:24:38;;;;;;;13.53;0.80;;;;;;;7.66;52.07;101581.72;4997974;28;20038;-68
2021/11/08 01:27:04;;;;;;;;;;;;;;;7.64;52.25;101582.63;4998800;28;20559;-68
2021/11/08 01:29:31;;;;;;;8.98;0.63;;;;;;;7.66;52.52;101599.94;4999993;28;20703;-70
2021/11/08 01:32:00;;;;;;;12.27;1.25;;;;;;;7.76;52.28;101597.19;5000529;28;20512;-68
2021/11/08 01:34:29;;;;;;;20.02;1.52;;;;;;;7.40;53.32;101600.34;5012493;28;20041;-67
2021/11/08 01:36:55;;;;;;;9.32;0.93;;;;;;;7.64;52.74;101595.66;5013363;28;20125;-68
2021/11/08 01:39:31;;;;;;;15.05;1.25;;;;;;;7.71;52.87;101595.53;5014252;28;20542;-68
2021/11/08 01:41:59;;;;;;;9.75;0.60;;;;;;;7.81;52.41;101593.63;4980442;28;20040;-69
2021/11/08 01:44:28;;;;;;;8.18;0.77;;;;;;;7.80;51.90;101593.66;5016854;28;20044;-68
2021/11/08 01:46:55;;;;;;;7.32;0.80;;;;;;;7.78;52.17;101600.63;4982660;28;20046;-68
2021/11/08 01:49:21;;;;;;;6.15;0.90;;;;;;;7.68;52.15;101600.78;5002353;28;20427;-70
2021/11/08 01:51:47;;;;;;;7.07;1.00;;;;;;;7.65;52.08;101606.03;5017115;28;20520;-69
2021/11/08 01:54:12;;;;;;;10.95;1.00;;;;;;;7.60;52.33;101602.66;5018004;28;20048;-68
2021/11/08 01:56:38;;;;;;;2.13;0.52;;;;;;;7.59;52.38;101605.28;5005954;28;20033;-68
2021/11/08 01:59:04;;;;;;;7.88;0.85;;;;;;;7.60;52.91;101617.38;5001516;28;20049;-68
2021/11/08 02:01:30;;;;;;;5.88;0.65;;;;;;;7.66;52.95;101612.94;5018720;28;20090;-69
2021/11/08 02:03:55;;;;;;;5.50;0.68;;;;;;;7.74;52.58;101611.09;5001785;28;20859;-69
2021/11/08 02:06:21;;;;;;;10.48;1.08;;;;;;;7.80;52.64;101609.25;5003055;28;20103;-69
2021/11/08 02:08:47;;;;;;;13.00;1.10;;;;;;;7.84;52.52;101618.75;5003179;28;20052;-68
2021/11/08 02:11:13;;;;;;;8.70;0.88;;;;;;;7.80;52.63;101617.06;5005006;28;20365;-69
2021/11/08 02:13:39;;;;;;;10.90;1.20;;;;;;;7.72;52.65;101612.84;5017314;28;20065;-68
2021/11/08 02:16:07;;;;;;;3.35;0.40;;;;;;;7.69;52.40;101615.53;5003082;28;20517;-69
2021/11/08 02:18:34;;;;;;;11.63;0.88;;;;;;;7.51;53.10;101607.94;5000833;28;20041;-68
2021/11/08 02:21:02;;;;;;;5.85;0.47;;;;;;;7.17;53.75;101608.44;5018622;28;20038;-68
2021/11/08 02:23:28;;;;;;;11.35;1.45;;;;;;;7.32;53.70;101613.44;4983647;28;20050;-68
2021/11/08 02:25:56;;;;;;;7.35;0.43;;;;;;;7.26;53.31;101613.50;5018591;28;20045;-68
2021/11/08 02:28:22;;;;;;;9.82;0.70;;;;;;;7.32;53.51;101615.19;5002117;28;20165;-69
2021/11/08 02:30:53;;;;;;;4.40;0.60;;;;;;;7.41;53.03;101619.38;5019486;28;20038;-68
2021/11/08 02:33:19;;;;;;;8.93;0.75;;;;;;;7.19;53.46;101618.84;5017966;28;20526;-68
2021/11/08 02:35:45;;;;;;;7.63;0.70;;;;;;;7.33;52.92;101617.78;4987929;28;20077;-68
2021/11/08 02:38:27;;;;;;;8.40;0.73;;;;;;;7.12;53.29;101615.47;4986414;28;20048;-68
2021/11/08 02:40:54;;;;;;;;;;;;;;;7.10;53.23;101614.63;5002831;28;20036;-68
2021/11/08 02:43:21;;;;;;;3.08;0.28;;;;;;;7.07;53.32;101619.88;5001268;28;19917;-67
2021/11/08 02:46:06;;;;;;;14.63;0.95;;;;;;;6.90;53.58;101628.72;5001617;28;20566;-67
2021/11/08 02:48:32;;;;;;;9.77;1.30;;;;;;;6.82;53.66;101622.78;4975049;28;20057;-68
2021/11/08 02:51:05;;;;;;;9.73;1.33;;;;;;;6.80;53.83;101634.94;5002800;28;20041;-68
2021/11/08 02:53:32;;;;;;;11.55;1.38;;;;;;;6.58;54.88;101623.94;5016026;28;20061;-67
2021/11/08 02:55:58;;;;;;;19.55;2.00;;;;;;;6.80;54.24;101629.75;5002087;28;20050;-68
2021/11/08 02:58:27;;;;;;;9.75;0.70;;;;;;;7.10;53.56;101632.81;4999724;28;20072;-69
2021/11/08 03:00:55;;;;;;;7.53;1.85;;;;;;;7.00;53.76;101631.19;5016941;28;20036;-68
2021/11/08 03:03:23;;;;;;;9.65;1.20;;;;;;;7.23;53.07;101636.13;4998889;28;20042;-68
2021/11/08 03:05:49;;;;;;;10.00;1.42;;;;;;;7.14;53.23;101631.91;4992200;28;20025;-67
2021/11/08 03:08:14;;;;;;;6.72;0.40;;;;;;;7.11;52.94;101631.94;5000540;28;20454;-68
2021/11/08 03:10:40;;;;;;;6.78;0.57;;;;;;;7.04;53.26;101638.09;5000971;28;20080;-67
2021/11/08 03:13:18;;;;;;;4.93;0.32;;;;;;;7.02;52.75;101629.44;5015391;28;20099;-68
2021/11/08 03:16:04;;;;;;;6.22;0.38;;;;;;;7.04;52.57;101638.09;5015908;28;20033;-68
2021/11/08 03:18:39;;;;;;;6.88;0.20;;;;;;;7.06;52.54;101638.94;5000207;28;20088;-70
2021/11/08 03:21:14;;;;;;;3.67;0.20;;;;;;;6.62;54.14;101646.41;5017297;28;20042;-67
2021/11/08 03:23:41;;;;;;;5.28;1.00;;;;;;;6.66;53.81;101640.28;4998947;28;20097;-69
2021/11/08 03:26:46;;;;;;;3.97;0.20;;;;;;;6.69;53.24;101639.41;4986431;28;20672;-68
2021/11/08 03:28:59;;;;;;;;;;;;;;;7.02;52.99;101642.44;4995850;28;20041;-68
2021/11/08 03:31:26;;;;;;;5.35;0.30;;;;;;;6.88;53.02;101653.03;5001033;28;19921;-68
2021/11/08 03:33:53;;;;;;;8.23;0.47;;;;;;;7.05;52.86;101656.28;4985952;28;20049;-68
2021/11/08 03:36:19;;;;;;;14.85;1.10;;;;;;;6.64;53.45;101652.44;5002650;28;20052;-68
2021/11/08 03:38:45;;;;;;;3.30;0.10;;;;;;;6.85;53.02;101653.06;5014457;28;20119;-68
2021/11/08 03:41:10;;;;;;;6.10;0.50;;;;;;;6.84;53.25;101657.41;5001574;28;20559;-67
2021/11/08 03:43:37;;;;;;;3.22;0.52;;;;;;;6.88;52.88;101643.47;4998440;28;20050;-68
2021/11/08 03:46:03;;;;;;;4.80;0.20;;;;;;;7.14;52.27;101647.50;4997897;28;20040;-69
2021/11/08 03:48:29;;;;;;;5.05;0.10;;;;;;;6.78;53.25;101652.28;4998350;28;20061;-68
2021/11/08 03:50:55;;;;;;;8.15;0.40;;;;;;;6.49;54.03;101653.47;5018390;28;20033;-70
2021/11/08 03:53:21;;;;;;;4.85;0.57;;;;;;;6.53;54.52;101653.41;4997523;28;20057;-68
2021/11/08 03:55:48;;;;;;;7.13;0.45;;;;;;;6.71;53.92;101650.63;4999925;28;20073;-68
2021/11/08 03:58:14;;;;;;;12.05;0.82;;;;;;;6.62;53.67;101661.09;4997452;28;20669;-68
2021/11/08 04:00:43;;;;;;;10.43;0.77;;;;;;;6.69;53.61;101652.38;5001527;28;20034;-68
2021/11/08 04:03:11;;;;;;;2.38;0.20;;;;;;;6.56;53.90;101662.03;4997458;28;20128;-67
2021/11/08 04:05:39;;;;;;;7.95;0.93;;;;;;;6.15;55.29;101668.47;5014894;28;20040;-67
2021/11/08 04:08:09;;;;;;;10.55;1.15;;;;;;;6.24;55.35;101664.94;5000264;28;20041;-69
2021/11/08 04:10:37;;;;;;;4.18;0.50;;;;;;;6.22;55.37;101670.13;5015232;28;20044;-70
2021/11/08 04:13:04;;;;;;;6.75;0.45;;;;;;;6.27;55.07;101670.09;5001199;28;20053;-69
2021/11/08 04:15:36;;;;;;;3.95;0.45;;;;;;;6.39;54.62;101670.00;4988699;28;20612;-68
2021/11/08 04:18:14;;;;;;;12.15;0.60;;;;;;;5.88;56.37;101674.72;5013985;28;20102;-68
2021/11/08 04:20:42;;;;;;;4.47;1.20;;;;;;;6.13;55.92;101671.94;5013569;28;20037;-69
2021/11/08 04:23:09;;;;;;;12.70;0.55;;;;;;;6.22;55.43;101677.06;4999285;28;20053;-69
2021/11/08 04:25:35;;;;;;;9.32;0.57;;;;;;;6.01;56.37;101685.88;5002671;28;20037;-68
2021/11/08 04:28:01;;;;;;;7.22;0.40;;;;;;;6.00;56.06;101681.56;5015305;28;20057;-69
2021/11/08 04:30:27;;;;;;;15.70;1.40;;;;;;;5.75;57.39;101671.38;4998895;28;20088;-68
2021/11/08 04:38:22;;;;;;;6.88;0.73;;;;;;;5.86;56.63;101671.31;4964692;28;20120;-68
2021/11/08 04:41:05;;;;;;;7.20;0.50;;;;;;;5.99;56.16;101672.91;5000372;28;20243;-68
2021/11/08 04:48:58;;;;;;;11.30;0.50;;;;;;;6.11;55.50;101678.91;4994742;28;20598;-69
2021/11/08 04:51:52;;;;;;;6.38;0.50;;;;;;;5.75;57.08;101684.34;4999852;28;20042;-68
2021/11/08 05:32:08;;;;;;;6.28;0.30;;;;;;;6.04;55.89;101683.28;5002328;28;20446;-69
2021/11/08 05:34:34;;;;;;;9.65;1.00;;;;;;;6.20;55.31;101694.41;5018791;28;20041;-68
2021/11/08 05:36:59;;;;;;;13.52;0.73;;;;;;;5.98;56.29;101694.56;4986257;28;20037;-68
2021/11/08 05:39:25;;;;;;;12.15;1.23;;;;;;;5.02;58.64;101693.38;5002082;28;20037;-68
2021/11/08 05:41:50;;;;;;;3.53;0.82;;;;;;;5.52;57.23;101697.44;5001907;28;20492;-67
2021/11/08 05:44:16;;;;;;;7.65;0.68;;;;;;;5.80;56.66;101697.28;5003266;28;20555;-68
2021/11/08 05:46:42;;;;;;;6.57;0.35;;;;;;;5.98;55.72;101694.56;5015928;28;20044;-68
2021/11/08 05:49:08;;;;;;;6.68;0.50;;;;;;;5.85;55.67;101695.53;5005076;28;20578;-69
2021/11/08 05:51:33;;;;;;;6.78;0.65;;;;;;;5.97;55.42;101698.03;5000095;28;20030;-68
2021/11/08 05:53:59;;;;;;;5.25;0.70;;;;;;;5.04;58.71;101702.88;5005450;28;20132;-70
2021/11/08 05:56:40;;;;;;;4.57;0.30;;;;;;;5.19;57.81;101707.13;5000918;28;20040;-69
2021/11/08 06:48:49;;;;;;;8.20;0.73;;;;;;;5.15;59.44;101720.97;4998507;28;20149;-69
2021/11/08 06:50:59;;;;;;;11.20;0.43;;;;;;;5.66;57.54;101728.50;5000052;28;20495;-70
2021/11/08 06:53:28;;;;;;;9.05;1.40;;;;;;;6.05;56.08;101729.09;5001692;28;20045;-69
2021/11/08 06:55:56;;;;;;;4.47;0.95;;;;;;;5.87;56.84;101736.16;4999576;28;20761;-69
2021/11/08 06:58:23;;;;;;;5.20;0.43;;;;;;;5.81;57.20;101743.97;4999715;28;20049;-69
2021/11/08 07:00:50;;;;;;;6.32;0.88;;;;;;;6.25;56.06;101747.97;4999565;28;20037;-69
2021/11/08 07:03:16;;;;;;;4.10;0.68;;;;;;;6.57;55.02;101754.66;4997086;28;20042;-69
2021/11/08 07:05:42;;;;;;;7.93;0.45;;;;;;;6.46;55.43;101753.91;5001331;28;20038;-68
2021/11/08 07:08:10;;;;;;;9.43;0.93;;;;;;;6.40;55.04;101759.16;4999423;28;20063;-69
2021/11/08 07:10:37;;;;;;;3.70;0.65;;;;;;;6.46;55.47;101762.56;5002095;28;20061;-69
2021/11/08 07:13:03;;;;;;;8.00;0.30;;;;;;;6.17;56.16;101754.09;4999160;28;20061;-68
2021/11/08 07:15:28;;;;;;;8.23;0.77;;;;;;;6.20;56.18;101764.47;5017346;28;20037;-69
2021/11/08 07:17:54;;;;;;;9.48;0.50;;;;;;;6.47;55.45;101769.47;5001334;28;21124;-69
2021/11/08 07:20:21;;;;;;;4.90;0.55;;;;;;;6.43;55.32;101762.59;5016358;28;20057;-69
2021/11/08 07:22:47;;;;;;;9.63;0.60;;;;;;;6.34;55.87;101770.44;5001458;28;20910;-68
2021/11/08 07:25:13;;;;;;;3.38;0.40;;;;;;;6.67;54.37;101778.84;5001112;28;20034;-68
2021/11/08 07:27:39;;;;;;;5.72;0.40;;;;;;;6.83;54.33;101775.22;5002282;28;20065;-69
2021/11/08 07:30:06;;;;;;;11.27;0.35;;;;;;;6.68;55.03;101781.41;5001444;28;20092;-70
2021/11/08 07:32:32;;;;;;;14.88;0.80;;;;;;;6.07;56.62;101772.34;5017030;28;20049;-69
2021/11/08 07:34:58;;;;;;;8.05;0.70;;;;;;;6.56;55.37;101778.06;5001549;28;20049;-69
2021/11/08 07:37:24;;;;;;;9.95;1.23;;;;;;;6.54;55.46;101783.28;5000402;28;20049;-70
2021/11/08 07:39:50;;;;;;;11.93;1.10;;;;;;;6.43;55.83;101788.56;5003613;28;20041;-68
2021/11/08 07:42:17;;;;;;;9.68;0.68;;;;;;;6.40;55.83;101791.19;5002178;28;20033;-69
2021/11/08 07:44:43;;;;;;;8.40;0.68;;;;;;;6.29;55.92;101785.22;4998499;28;20093;-69
2021/11/08 07:47:08;;;;;;;11.10;0.73;;;;;;;6.12;57.20;101794.81;4999724;28;20092;-69
2021/11/08 07:49:34;;;;;;;9.55;0.88;;;;;;;6.08;57.66;101789.66;5000485;28;20068;-69
2021/11/08 07:52:00;;;;;;;10.27;1.38;;;;;;;6.62;55.97;101791.88;4982831;28;20069;-70
2021/11/08 07:54:30;;;;;;;8.00;0.38;;;;;;;7.08;54.32;101795.75;4983437;28;20670;-69
2021/11/08 07:56:56;;;;;;;11.25;0.70;;;;;;;7.47;53.32;101796.19;5016141;28;20126;-68
2021/11/08 07:59:22;;;;;;;7.25;1.15;;;;;;;8.02;52.67;101798.06;5000705;28;20046;-69
2021/11/08 08:01:48;;;;;;;6.18;0.47;;;;;;;6.85;55.03;101798.59;4999511;28;20060;-69
2021/11/08 08:04:15;;;;;;;7.63;0.70;;;;;;;6.79;55.46;101802.09;5002532;28;20246;-69
2021/11/08 08:06:41;;;;;;;17.65;1.35;;;;;;;6.67;56.17;101804.81;5015204;28;20037;-69
2021/11/08 08:09:06;;;;;;;7.45;0.68;;;;;;;6.24;57.98;101797.34;5015969;28;20018;-69
2021/11/08 08:11:32;;;;;;;5.53;0.65;;;;;;;6.47;57.02;101807.56;4997894;28;20062;-69
2021/11/08 08:13:58;;;;;;;6.75;0.52;;;;;;;6.82;56.16;101809.88;4999345;28;20172;-69
2021/11/08 08:16:23;;;;;;;10.10;0.65;;;;;;;6.84;56.20;101809.84;4999228;28;21596;-69
2021/11/08 08:18:50;;;;;;;7.28;0.80;;;;;;;6.44;57.85;101816.25;5000318;28;20045;-69
2021/11/08 08:21:17;;;;;;;6.55;0.77;;;;;;;6.48;57.84;101810.19;4999819;28;20033;-69
2021/11/08 08:23:43;;;;;;;11.15;0.80;;;;;;;7.01;56.54;101817.50;5007324;28;20049;-69
2021/11/08 08:26:11;;;;;;;9.65;0.60;;;;;;;6.31;58.06;101812.03;5014295;28;20033;-69
2021/11/08 08:28:37;;;;;;;10.38;1.10;;;;;;;6.65;57.54;101827.34;4998399;28;20050;-69
2021/11/08 08:31:03;;;;;;;8.38;0.70;;;;;;;7.07;56.33;101815.69;5001861;28;20030;-70
2021/11/08 08:33:31;;;;;;;7.68;0.60;;;;;;;7.08;56.66;101821.75;5000203;28;20054;-69
2021/11/08 08:35:58;;;;;;;7.93;0.90;;;;;;;7.37;55.53;101823.16;4981629;28;20753;-70
2021/11/08 08:38:23;;;;;;;2.67;0.25;;;;;;;6.50;58.71;101816.19;4999045;28;20874;-68
2021/11/08 08:40:51;;;;;;;8.05;1.40;;;;;;;6.85;57.63;101828.03;5001372;28;20539;-69
2021/11/08 08:43:18;;;;;;;7.15;0.43;;;;;;;6.98;57.70;101826.19;5002210;28;20062;-69
2021/11/08 08:45:43;;;;;;;7.97;0.85;;;;;;;6.67;58.43;101825.59;4999017;28;20037;-68
2021/11/08 08:48:11;;;;;;;8.27;0.90;;;;;;;6.81;58.57;101823.72;5014915;28;20045;-69
2021/11/08 08:50:38;;;;;;;11.63;0.90;;;;;;;6.26;59.61;101829.31;5008914;28;20030;-69
2021/11/08 08:53:04;;;;;;;5.47;0.68;;;;;;;7.30;57.79;101831.03;4997427;28;20050;-68
2021/11/08 08:55:31;;;;;;;4.90;0.80;;;;;;;7.00;58.22;101828.75;4999483;28;20537;-68
2021/11/08 08:57:58;;;;;;;13.52;0.70;;;;;;;7.84;56.60;101839.97;4996396;28;20521;-68
2021/11/08 09:00:23;;;;;;;9.70;0.45;;;;;;;7.80;56.35;101838.28;4999501;28;20615;-68
2021/11/08 09:02:51;;;;;;;7.47;0.68;;;;;;;7.35;56.94;101843.97;4996271;28;20076;-69
2021/11/08 09:05:18;;;;;;;5.20;0.60;;;;;;;6.98;57.98;101841.78;4997711;28;20037;-69
2021/11/08 09:07:44;;;;;;;11.60;0.95;;;;;;;7.86;56.47;101848.63;4995749;28;20037;-69
2021/11/08 09:10:10;;;;;;;4.95;1.05;;;;;;;7.72;56.04;101852.25;4997419;28;20415;-68
2021/11/08 09:12:36;;;;;;;17.10;1.38;;;;;;;7.66;56.91;101854.94;4997553;28;20647;-69
2021/11/08 09:15:03;;;;;;;6.50;0.82;;;;;;;8.01;55.65;101856.22;4994166;28;20034;-69
2021/11/08 09:17:28;;;;;;;8.32;1.02;;;;;;;7.30;57.28;101854.44;5008792;28;20519;-68
2021/11/08 09:19:54;;;;;;;2.45;0.45;;;;;;;7.78;56.27;101861.75;4998835;28;20042;-68
2021/11/08 09:22:20;;;;;;;7.40;0.50;;;;;;;7.39;57.57;101857.84;4996025;28;20127;-69
2021/11/08 09:24:45;;;;;;;12.23;1.25;;;;;;;7.47;57.46;101856.00;4998287;28;20117;-69
2021/11/08 09:27:11;;;;;;;9.95;0.47;;;;;;;8.42;55.65;101854.75;5011369;28;20056;-69
2021/11/08 09:29:36;;;;;;;4.78;0.50;;;;;;;7.93;56.54;101860.66;5012443;28;20038;-69
2021/11/08 09:32:03;;;;;;;2.75;0.60;;;;;;;7.53;57.37;101858.53;4994675;28;20042;-69
2021/11/08 09:34:29;;;;;;;3.25;0.45;;;;;;;7.71;56.65;101871.38;4997675;28;20042;-69
2021/11/08 09:36:58;;;;;;;3.10;0.40;;;;;;;8.14;55.23;101870.81;4995984;28;20248;-69
2021/11/08 09:39:25;;;;;;;3.30;0.50;;;;;;;8.51;55.02;101872.00;5013564;28;20176;-68
2021/11/08 09:41:56;;;;;;;4.18;0.70;;;;;;;8.05;55.74;101880.50;4997385;28;20054;-68
2021/11/08 09:44:21;;;;;;;5.38;0.43;;;;;;;8.55;54.40;101884.97;4997967;28;20038;-69
2021/11/08 09:46:51;;;;;;;5.93;0.88;;;;;;;8.47;54.79;101879.03;4996269;28;20041;-68
2021/11/08 09:49:17;;;;;;;4.38;0.40;;;;;;;8.66;54.32;101873.53;5013901;28;20076;-68
2021/11/08 09:51:46;;;;;;;3.28;0.35;;;;;;;8.02;55.81;101878.78;4997714;28;20037;-68
2021/11/08 09:54:13;;;;;;;5.45;1.17;;;;;;;9.12;53.90;101878.84;5000527;28;20041;-69
2021/11/08 09:56:43;;;;;;;5.18;1.00;;;;;;;8.68;54.04;101872.59;4998340;28;20034;-69
2021/11/08 09:59:09;;;;;;;6.75;1.55;;;;;;;9.31;53.43;101889.78;5001858;28;20037;-70
2021/11/08 10:01:37;;;;;;;6.80;0.88;;;;;;;9.47;53.20;101895.59;5000330;28;20034;-69
2021/11/08 10:04:04;;;;;;;6.07;1.27;;;;;;;9.38;52.15;101891.41;5002290;28;20026;-70
2021/11/08 10:06:31;;;;;;;5.40;0.73;;;;;;;9.42;52.74;101892.22;5001921;28;20038;-71
2021/11/08 10:08:57;;;;;;;3.00;0.57;;;;;;;9.64;52.23;101892.66;5018629;28;20040;-69
2021/11/08 10:11:23;;;;;;;6.60;0.80;;;;;;;9.48;51.90;101906.91;5020969;28;20058;-69
2021/11/08 10:13:51;;;;;;;12.55;0.93;;;;;;;8.81;53.73;101904.59;5018841;28;20120;-69
2021/11/08 10:16:23;;;;;;;3.30;0.75;;;;;;;8.79;53.88;101905.50;5008471;28;20030;-68
2021/11/08 10:18:53;;;;;;;6.85;1.33;;;;;;;8.21;56.18;101918.47;5003568;28;20042;-69
2021/11/08 10:21:33;;;;;;;4.03;0.95;;;;;;;8.72;54.91;101912.56;5000868;28;20608;-69
2021/11/08 10:24:02;;;;;;;5.13;0.32;;;;;;;8.59;55.42;101916.19;5001748;28;20088;-68
2021/11/08 10:26:33;;;;;;;5.88;0.68;;;;;;;7.67;58.09;101926.94;5003994;28;20046;-69
2021/11/08 10:29:12;;;;;;;4.45;0.88;;;;;;;8.25;56.63;101932.28;5001186;28;20092;-69
2021/11/08 10:31:43;;;;;;;4.68;0.73;;;;;;;8.20;57.13;101927.13;5004042;28;20156;-68
2021/11/08 10:34:11;;;;;;;3.13;0.70;;;;;;;8.34;56.41;101924.38;5002525;28;20026;-69
2021/11/08 10:36:37;;;;;;;7.00;0.80;;;;;;;8.77;55.58;101918.56;5003814;28;20513;-69
2021/11/08 10:39:06;;;;;;;4.90;1.20;;;;;;;8.11;57.46;101930.75;5002843;28;20030;-69
2021/11/08 10:41:36;;;;;;;7.50;0.88;;;;;;;8.14;57.71;101930.69;5001327;28;20046;-68
2021/11/08 10:44:11;;;;;;;4.88;0.50;;;;;;;8.53;56.25;101930.16;5003937;28;20033;-70
2021/11/08 10:46:40;;;;;;;3.97;0.45;;;;;;;8.86;55.36;101927.97;5016442;28;20038;-70
2021/11/08 10:49:15;;;;;;;8.15;1.00;;;;;;;8.93;55.42;101938.25;5000702;28;20488;-69
2021/11/08 10:51:45;;;;;;;6.97;0.93;;;;;;;9.12;54.55;101935.34;5001563;28;21773;-69
2021/11/08 10:54:19;;;;;;;6.97;1.08;;;;;;;9.01;54.06;101930.34;5013234;28;20046;-69
2021/11/08 10:57:01;;;;;;;4.25;0.43;;;;;;;9.27;54.33;101936.84;4994350;28;20452;-68
2021/11/08 10:59:34;;;;;;;2.47;0.98;;;;;;;9.04;54.29;101926.81;5002093;28;20710;-69
2021/11/08 11:02:03;;;;;;;10.57;2.33;;;;;;;8.76;55.28;101928.13;4999967;28;20249;-69
2021/11/08 11:04:31;;;;;;;5.85;1.15;;;;;;;8.65;56.04;101926.50;5019158;28;20060;-69
2021/11/08 11:06:57;;;;;;;14.93;1.17;;;;;;;9.45;54.04;101925.22;5001218;28;20053;-69
2021/11/08 11:09:29;;;;;;;3.42;0.45;;;;;;;9.61;53.64;101924.06;5017605;28;20045;-68
2021/11/08 11:12:14;;;;;;;6.00;0.50;;;;;;;9.59;53.31;101923.22;5002430;28;20125;-68
2021/11/08 11:14:48;;;;;;;6.45;0.57;;;;;;;9.66;53.57;101914.38;4998582;28;20030;-70
2021/11/08 11:17:38;;;;;;;5.88;0.80;;;;;;;10.00;52.75;101917.19;5002362;28;20519;-68
2021/11/08 11:20:37;;;;;;;7.05;0.70;;;;;;;10.02;52.93;101933.69;5002327;28;20041;-68
2021/11/08 11:23:20;;;;;;;6.53;1.08;;;;;;;10.10;52.78;101923.09;4989723;28;20538;-68
2021/11/08 11:25:52;;;;;;;6.93;0.75;;;;;;;9.94;53.16;101922.53;5018052;28;20443;-69
2021/11/08 11:28:35;;;;;;;9.27;1.55;;;;;;;9.95;53.25;101923.41;4997771;28;20057;-68
2021/11/08 11:31:11;;;;;;;8.02;2.20;;;;;;;10.11;52.82;101926.56;5001170;28;20037;-68
2021/11/08 11:33:36;;;;;;;7.03;2.22;;;;;;;10.22;52.67;101930.66;5015420;28;20137;-68
2021/11/08 11:36:05;;;;;;;6.43;0.85;;;;;;;9.89;53.10;101927.00;5001519;28;20125;-71
2021/11/08 11:38:55;;;;;;;10.13;1.10;;;;;;;10.13;52.85;101928.25;5018460;28;20057;-68
2021/11/08 11:41:36;;;;;;;6.53;0.47;;;;;;;10.21;52.32;101921.09;5004289;28;20547;-68
2021/11/08 11:44:17;;;;;;;8.43;0.88;;;;;;;10.10;52.24;101927.44;5003297;28;20423;-70
2021/11/08 11:46:48;;;;;;;5.07;0.73;;;;;;;9.95;51.67;101936.47;5003355;28;20036;-70
2021/11/08 11:49:14;;;;;;;2.25;0.32;;;;;;;10.03;50.65;101939.75;5004512;28;20061;-68
2021/11/08 11:51:45;;;;;;;3.15;0.10;;;;;;;9.45;51.20;101933.88;5004008;28;20033;-68
2021/11/08 11:54:12;;;;;;;9.13;0.57;;;;;;;10.18;49.82;101938.59;5018790;28;20038;-68
2021/11/08 11:56:41;;;;;;;6.15;0.50;;;;;;;10.73;48.20;101934.75;5001909;28;20112;-68
2021/11/08 11:59:08;;;;;;;6.18;0.25;;;;;;;10.95;48.89;101950.81;5003529;28;20034;-68
2021/11/08 12:01:36;;;;;;;6.35;0.40;;;;;;;11.12;48.19;101936.44;5019272;28;20038;-68
2021/11/08 12:04:02;;;;;;;12.07;0.55;;;;;;;11.30;47.75;101942.97;5003710;28;20193;-68
2021/11/08 12:06:38;;;;;;;10.00;0.60;;;;;;;10.55;48.30;101943.88;5004529;28;20728;-68
2021/11/08 12:09:07;;;;;;;4.72;0.28;;;;;;;10.11;49.99;101945.69;5003121;28;20033;-68
2021/11/08 12:11:41;;;;;;;4.13;0.45;;;;;;;10.33;49.16;101940.03;5018541;28;20089;-68
2021/11/08 12:14:15;;;;;;;5.72;0.90;;;;;;;10.76;48.46;101954.72;5018815;28;20039;-68
2021/11/08 12:17:02;;;;;;;6.97;0.50;;;;;;;10.74;47.82;101946.06;5002382;28;20100;-69
2021/11/08 12:19:38;;;;;;;10.48;0.93;;;;;;;10.72;48.25;101942.59;4999881;28;20030;-68
2021/11/08 12:22:20;;;;;;;7.45;0.47;;;;;;;10.47;48.65;101943.19;5004358;28;20038;-68
2021/11/08 12:25:13;;;;;;;8.07;0.75;;;;;;;10.78;47.49;101945.94;5005587;28;20049;-68
2021/11/08 12:28:01;;;;;;;6.45;0.65;;;;;;;10.74;48.25;101956.50;5001457;28;20077;-68
2021/11/08 12:30:42;;;;;;;3.90;0.85;;;;;;;10.57;47.97;101952.53;5002036;28;20063;-68
2021/11/08 12:33:27;;;;;;;8.97;0.60;;;;;;;10.33;48.72;101950.47;5011708;28;20037;-68
2021/11/08 12:35:55;;;;;;;5.28;0.28;;;;;;;10.72;47.99;101958.31;5005493;28;20038;-69
2021/11/08 12:38:30;;;;;;;12.45;1.02;;;;;;;10.84;47.56;101958.06;5003229;28;20053;-69
2021/11/08 12:41:20;;;;;;;2.67;0.25;;;;;;;11.13;47.03;101954.72;5003882;28;20510;-68
2021/11/08 12:43:56;;;;;;;5.45;1.10;;;;;;;10.80;47.73;101965.06;5003430;28;20070;-68
2021/11/08 12:46:26;;;;;;;8.38;0.32;;;;;;;10.66;48.33;101966.28;5002560;28;20475;-69
2021/11/08 12:48:52;;;;;;;11.20;1.40;;;;;;;9.85;49.94;101974.94;4985380;28;20049;-68
2021/11/08 12:51:21;;;;;;;7.45;0.40;;;;;;;9.67;50.58;101981.34;5004115;28;20076;-69
2021/11/08 12:53:59;;;;;;;3.53;0.32;;;;;;;9.07;51.35;101984.97;5003019;28;20092;-69
2021/11/08 12:56:28;;;;;;;8.50;0.60;;;;;;;9.39;50.48;101989.69;5019011;28;20510;-70
2021/11/08 12:58:59;;;;;;;11.70;0.60;;;;;;;9.65;50.24;102001.38;5003002;28;20495;-69
2021/11/08 13:02:10;;;;;;;14.88;0.65;;;;;;;9.39;49.57;101992.28;5004030;28;20064;-69
2021/11/08 13:04:50;;;;;;;1.77;0.67;;;;;;;9.88;48.78;101995.78;4960496;28;20059;-69
2021/11/08 13:07:17;;;;;;;6.22;0.20;;;;;;;9.73;48.52;101983.84;4997815;28;20127;-69
2021/11/08 13:09:49;;;;;;;2.20;0.17;;;;;;;10.20;47.39;101982.06;4997460;28;20117;-69
2021/11/08 13:12:29;;;;;;;5.35;0.50;;;;;;;10.40;46.47;101980.81;5016782;28;20065;-70
2021/11/08 13:15:09;;;;;;;4.40;1.00;;;;;;;10.03;44.04;101973.72;4995733;28;20423;-69
2021/11/08 13:17:51;;;;;;;3.38;0.30;;;;;;;10.37;44.11;101967.78;5015499;28;20463;-69
2021/11/08 13:20:18;;;;;;;;;;;;;;;10.61;43.73;101964.63;5015082;28;20499;-69
2021/11/08 13:22:48;;;;;;;5.32;0.30;;;;;;;10.71;44.13;101962.69;4991051;28;19924;-69